Flower Mound, Texas
Current Conditions -  °F | °C
As of 3:53 PM on Friday 28 Nov 2014 (Local Time) from KDFW Reporting Station
Few Clouds Few Clouds  
Wind Chill: 69°   Ceiling: Unl
Heat Index: 69°   Visibility: 10mi
Dew Point: 50°   Wind: 16mph
Humidity: 51%   Direction: 180°S
Pressure: 30.02"   Gusts: NA
Location:  33.03°N, 97.06°W
Report Text: KDFW 282153Z 18014KT 10SM FEW300 21/10 A3002 RMK AO2 PK WND 19026/2119 SLP162 T02060100
Loading
Personal Weather Stations






























Interactive Weather Map New forecast layout! Learn more

10-Day Weather Forecast

Advertisements
Track Severe Weather on mobile